Fergus Falls, MN

4:57 AM CST on December 13, 2019 (GMT -0600)
Fergus Falls Municipal-Mickelson

Weather History for KFFM - October, 2019

Change the Weather History Date:

Thursday, October 24, 2019

  Actual Average Record
Temperature  
Mean Temperature 32 °F -  
Max Temperature 42 °F 54 °F 76 °F (1993)
Min Temperature 21 °F 32 °F 15 °F (1955)
Degree Days  
Heating Degree Days 34    
Moisture  
Dew Point 25 °F    
Average Humidity 76    
Maximum Humidity 93    
Minimum Humidity 49    
Precipitation  
Precipitation 0.00 in - - ()
Sea Level Pressure  
Sea Level Pressure 30.29 in    
Wind  
Wind Speed 4 mph ()    
Max Wind Speed 9 mph    
Max Gust Speed -    
Visibility 10.0 miles    
Events      
Averages and records for this station are not official NWS values.
T = Trace of Precipitation, MM = Missing Value Source: Averaged Metar Reports

Daily Weather History Graph

Daily Weather History Graph

Search for Another Location

Airport or City:

Astronomy

Oct. 24, 2019 Rise Set
Actual Time 7:54 AM CDT 6:22 PM CDT
Civil Twilight 7:23 AM CDT 6:53 PM CDT
Nautical Twilight 6:48 AM CDT 7:28 PM CDT
Astronomical Twilight 6:13 AM CDT 8:03 PM CDT
Moon 3:04 AM CDT (10/24) 5:08 PM CDT (10/24)
Length of Visible Light 11h 30m
Length of Day
10h 28m
Waning Crescent, 16% of the Moon is Illuminated
Oct 24
Waning Crescent
Oct 27
New
Nov 4
First Quarter
Nov 12
Full
Nov 19
Last Quarter

Hourly Weather History & Observations

Time (CDT) Temp. Windchill Dew Point Humidity Pressure Visibility Wind Dir Wind Speed Gust Speed Precip Events Conditions
12:15 AM 30.2 °F 25.4 °F 26.6 °F 86% 30.20 in 10.0 mi WNW 4.6 mph - N/A   Clear
12:19 AM 30.2 °F 25.4 °F 26.6 °F 86% 30.20 in 10.0 mi WNW 4.6 mph - N/A   Clear
12:38 AM 28.4 °F 22.2 °F 26.6 °F 93% 30.21 in 10.0 mi WNW 5.8 mph - N/A   Clear
12:55 AM 28.4 °F 21.2 °F 24.8 °F 86% 30.22 in 10.0 mi NW 6.9 mph - N/A   Clear
1:15 AM 28.4 °F 22.2 °F 24.8 °F 86% 30.22 in 10.0 mi WNW 5.8 mph - N/A   Clear
1:16 AM 28.4 °F 22.2 °F 24.8 °F 86% 30.22 in 10.0 mi WNW 5.8 mph - N/A   Clear
1:35 AM 28.4 °F 23.3 °F 24.8 °F 86% 30.22 in 10.0 mi WNW 4.6 mph - N/A   Clear
1:58 AM 28.4 °F 24.6 °F 24.8 °F 86% 30.22 in 10.0 mi NW 3.5 mph - N/A   Clear
2:17 AM 28.4 °F 22.2 °F 24.8 °F 86% 30.22 in 10.0 mi NW 5.8 mph - N/A   Clear
2:36 AM 28.4 °F 21.2 °F 24.8 °F 86% 30.22 in 10.0 mi NNW 6.9 mph - N/A   Clear
2:55 AM 26.6 °F 20.0 °F 23.0 °F 86% 30.23 in 10.0 mi WNW 5.8 mph - N/A   Clear
2:56 AM 26.6 °F 20.0 °F 23.0 °F 86% 30.23 in 10.0 mi WNW 5.8 mph - N/A   Clear
3:15 AM 26.6 °F 19.1 °F 24.8 °F 93% 30.23 in 10.0 mi North 6.9 mph - N/A   Clear
3:37 AM 26.6 °F 19.1 °F 23.0 °F 86% 30.23 in 10.0 mi NW 6.9 mph - N/A   Clear
3:56 AM 26.6 °F 22.6 °F 23.0 °F 86% 30.25 in 10.0 mi NW 3.5 mph - N/A   Clear
4:15 AM 26.6 °F 21.2 °F 23.0 °F 86% 30.26 in 10.0 mi NW 4.6 mph - N/A   Scattered Clouds
4:16 AM 26.6 °F 21.2 °F 23.0 °F 86% 30.26 in 10.0 mi NW 4.6 mph - N/A   Scattered Clouds
4:35 AM 26.6 °F 20.0 °F 24.8 °F 93% 30.26 in 10.0 mi NW 5.8 mph - N/A   Mostly Cloudy
4:36 AM 26.6 °F 21.2 °F 24.8 °F 93% 30.26 in 10.0 mi NW 4.6 mph - N/A   Mostly Cloudy
4:58 AM 26.6 °F 21.2 °F 24.8 °F 93% 30.27 in 10.0 mi NW 4.6 mph - N/A   Scattered Clouds
5:36 AM 26.6 °F 21.2 °F 23.0 °F 86% 30.28 in 10.0 mi NNW 4.6 mph - N/A   Clear
5:55 AM 26.6 °F 22.6 °F 23.0 °F 86% 30.28 in 10.0 mi North 3.5 mph - N/A   Clear
5:56 AM 26.6 °F 22.6 °F 23.0 °F 86% 30.28 in 10.0 mi North 3.5 mph - N/A   Clear
6:15 AM 24.8 °F - 21.2 °F 86% 30.28 in 10.0 mi Calm Calm - N/A   Clear
6:20 AM 24.8 °F 19.1 °F 23.0 °F 93% 30.28 in 10.0 mi North 4.6 mph - N/A   Clear
6:38 AM 24.8 °F 20.5 °F 21.2 °F 86% 30.28 in 10.0 mi North 3.5 mph - N/A   Clear
6:55 AM 24.8 °F - 21.2 °F 86% 30.30 in 10.0 mi Calm Calm - N/A   Clear
7:15 AM 23.0 °F - 21.2 °F 93% 30.30 in 10.0 mi Calm Calm - N/A   Clear
7:16 AM 23.0 °F - 21.2 °F 93% 30.30 in 10.0 mi Calm Calm - N/A   Clear
7:35 AM 24.8 °F - 21.2 °F 86% 30.30 in 10.0 mi Calm Calm - N/A   Clear
7:36 AM 24.8 °F - 21.2 °F 86% 30.30 in 10.0 mi Calm Calm - N/A   Clear
7:59 AM 21.2 °F - 19.4 °F 93% 30.31 in 10.0 mi Calm Calm - N/A   Clear
8:16 AM 23.0 °F - 21.2 °F 93% 30.32 in 10.0 mi Calm Calm - N/A   Clear
8:36 AM 23.0 °F - 21.2 °F 93% 30.33 in 10.0 mi Calm Calm - N/A   Clear
8:55 AM 26.6 °F - 24.8 °F 93% 30.34 in 10.0 mi Calm Calm - N/A   Clear
8:56 AM 26.6 °F - 24.8 °F 93% 30.34 in 10.0 mi Calm Calm - N/A   Clear
9:15 AM 26.6 °F 22.6 °F 24.8 °F 93% 30.34 in 10.0 mi WNW 3.5 mph - N/A   Clear
9:19 AM 28.4 °F 23.3 °F 26.6 °F 93% 30.34 in 10.0 mi WNW 4.6 mph - N/A   Clear
9:37 AM 28.4 °F 22.2 °F 26.6 °F 93% 30.35 in 10.0 mi WNW 5.8 mph - N/A   Clear
9:55 AM 30.2 °F 25.4 °F 26.6 °F 86% 30.35 in 10.0 mi WNW 4.6 mph - N/A   Clear
10:15 AM 30.2 °F 24.3 °F 26.6 °F 86% 30.36 in 10.0 mi WNW 5.8 mph - N/A   Clear
10:16 AM 32.0 °F 25.6 °F 26.6 °F 80% 30.36 in 10.0 mi NW 6.9 mph - N/A   Clear
10:35 AM 33.8 °F 28.6 °F 28.4 °F 81% 30.35 in 10.0 mi NW 5.8 mph - N/A   Clear
10:36 AM 33.8 °F 27.7 °F 28.4 °F 81% 30.35 in 10.0 mi NW 6.9 mph - N/A   Clear
10:59 AM 33.8 °F 28.6 °F 28.4 °F 81% 30.35 in 10.0 mi WNW 5.8 mph - N/A   Clear
11:16 AM 35.6 °F 30.7 °F 28.4 °F 75% 30.35 in 10.0 mi NW 5.8 mph - N/A   Clear
11:36 AM 35.6 °F 31.7 °F 28.4 °F 75% 30.35 in 10.0 mi NW 4.6 mph - N/A   Clear
11:55 AM 37.4 °F 32.1 °F 28.4 °F 70% 30.35 in 10.0 mi WNW 6.9 mph - N/A   Clear
11:56 AM 37.4 °F 32.8 °F 28.4 °F 70% 30.35 in 10.0 mi WNW 5.8 mph - N/A   Clear
12:15 PM 37.4 °F 30.8 °F 28.4 °F 70% 30.35 in 10.0 mi WNW 9.2 mph - N/A   Clear
12:19 PM 37.4 °F 32.1 °F 28.4 °F 70% 30.35 in 10.0 mi West 6.9 mph - N/A   Clear
1:35 PM 39.2 °F 35.0 °F 26.6 °F 61% 30.33 in 10.0 mi WNW 5.8 mph - N/A   Clear
1:36 PM 39.2 °F 33.6 °F 26.6 °F 61% 30.33 in 10.0 mi WNW 8.1 mph - N/A   Clear
1:58 PM 41.0 °F 37.1 °F 26.6 °F 57% 30.32 in 10.0 mi WNW 5.8 mph - N/A   Clear
2:16 PM 41.0 °F 35.2 °F 26.6 °F 57% 30.31 in 10.0 mi West 9.2 mph - N/A   Clear
2:35 PM 41.0 °F 38.0 °F 24.8 °F 53% 30.31 in 10.0 mi West 4.6 mph - N/A   Clear
2:36 PM 41.0 °F 37.1 °F 24.8 °F 53% 30.31 in 10.0 mi West 5.8 mph - N/A   Clear
2:55 PM 42.8 °F 37.5 °F 26.6 °F 53% 30.30 in 10.0 mi WNW 9.2 mph - N/A   Clear
2:56 PM 42.8 °F 38.0 °F 24.8 °F 49% 30.30 in 10.0 mi West 8.1 mph - N/A   Clear
3:15 PM 42.8 °F 39.3 °F 24.8 °F 49% 30.30 in 10.0 mi West 5.8 mph - N/A   Clear
3:19 PM 41.0 °F - 24.8 °F 53% 30.30 in 10.0 mi Calm Calm - N/A   Clear
3:37 PM 42.8 °F 39.3 °F 24.8 °F 49% 30.30 in 10.0 mi West 5.8 mph - N/A   Clear
3:55 PM 42.8 °F - 24.8 °F 49% 30.29 in 10.0 mi Calm Calm - N/A   Clear
4:15 PM 42.8 °F - 24.8 °F 49% 30.29 in 10.0 mi Calm Calm - N/A   Clear
4:16 PM 42.8 °F - 24.8 °F 49% 30.29 in 10.0 mi Calm Calm - N/A   Clear
4:35 PM 42.8 °F 39.3 °F 24.8 °F 49% 30.29 in 10.0 mi WSW 5.8 mph - N/A   Clear
4:36 PM 42.8 °F 38.6 °F 24.8 °F 49% 30.29 in 10.0 mi WSW 6.9 mph - N/A   Clear
4:58 PM 42.8 °F 40.1 °F 26.6 °F 53% 30.28 in 10.0 mi WSW 4.6 mph - N/A   Clear
5:17 PM 42.8 °F 40.1 °F 26.6 °F 53% 30.28 in 10.0 mi WSW 4.6 mph - N/A   Clear
5:36 PM 41.0 °F 38.0 °F 26.6 °F 57% 30.28 in 10.0 mi SW 4.6 mph - N/A   Clear
5:55 PM 39.2 °F 37.0 °F 26.6 °F 61% 30.28 in 10.0 mi SW 3.5 mph - N/A   Clear
5:56 PM 39.2 °F 37.0 °F 26.6 °F 61% 30.28 in 10.0 mi SW 3.5 mph - N/A   Clear
6:15 PM 39.2 °F 37.0 °F 26.6 °F 61% 30.27 in 10.0 mi SSW 3.5 mph - N/A   Clear
6:19 PM 39.2 °F 37.0 °F 26.6 °F 61% 30.27 in 10.0 mi SSW 3.5 mph - N/A   Clear
6:37 PM 37.4 °F 33.8 °F 26.6 °F 65% 30.27 in 10.0 mi South 4.6 mph - N/A   Clear
6:56 PM 37.4 °F 34.9 °F 26.6 °F 65% 30.27 in 10.0 mi South 3.5 mph - N/A   Clear
7:15 PM 37.4 °F - 26.6 °F 65% 30.27 in 10.0 mi Calm Calm - N/A   Clear
7:16 PM 37.4 °F - 26.6 °F 65% 30.27 in 10.0 mi Calm Calm - N/A   Clear
7:35 PM 37.4 °F 34.9 °F 26.6 °F 65% 30.27 in 10.0 mi SSE 3.5 mph - N/A   Clear
7:36 PM 37.4 °F 34.9 °F 26.6 °F 65% 30.27 in 10.0 mi SSE 3.5 mph - N/A   Clear
7:59 PM 35.6 °F 30.7 °F 26.6 °F 70% 30.27 in 10.0 mi SSE 5.8 mph - N/A   Clear
8:16 PM 33.8 °F 28.6 °F 26.6 °F 75% 30.28 in 10.0 mi SSE 5.8 mph - N/A   Clear
8:36 PM 33.8 °F 28.6 °F 26.6 °F 75% 30.28 in 10.0 mi SSE 5.8 mph - N/A   Clear
8:55 PM 33.8 °F 28.6 °F 26.6 °F 75% 30.28 in 10.0 mi SSE 5.8 mph - N/A   Clear
8:56 PM 33.8 °F 28.6 °F 26.6 °F 75% 30.28 in 10.0 mi SSE 5.8 mph - N/A   Clear
9:15 PM 33.8 °F 28.6 °F 26.6 °F 75% 30.28 in 10.0 mi SSE 5.8 mph - N/A   Scattered Clouds
9:19 PM 33.8 °F 28.6 °F 26.6 °F 75% 30.27 in 10.0 mi SSE 5.8 mph - N/A   Mostly Cloudy
9:38 PM 33.8 °F 27.7 °F 26.6 °F 75% 30.28 in 10.0 mi SSE 6.9 mph - N/A   Mostly Cloudy
9:55 PM 33.8 °F 27.0 °F 26.6 °F 75% 30.28 in 10.0 mi SSE 8.1 mph - N/A   Scattered Clouds
10:15 PM 32.0 °F 25.6 °F 26.6 °F 80% 30.28 in 10.0 mi South 6.9 mph - N/A   Clear
10:35 PM 32.0 °F 25.6 °F 26.6 °F 80% 30.27 in 10.0 mi SSE 6.9 mph - N/A   Clear
10:36 PM 32.0 °F 24.8 °F 26.6 °F 80% 30.27 in 10.0 mi SSE 8.1 mph - N/A   Clear
10:58 PM 33.8 °F 27.0 °F 26.6 °F 75% 30.26 in 10.0 mi South 8.1 mph - N/A   Clear
11:17 PM 33.8 °F 27.0 °F 26.6 °F 75% 30.27 in 10.0 mi South 8.1 mph - N/A   Clear
11:36 PM 32.0 °F 24.8 °F 26.6 °F 80% 30.27 in 10.0 mi South 8.1 mph - N/A   Scattered Clouds
11:55 PM 30.2 °F 22.6 °F 26.6 °F 86% 30.26 in 10.0 mi SSE 8.1 mph - N/A   Scattered Clouds
11:56 PM 30.2 °F 22.6 °F 26.6 °F 86% 30.26 in 10.0 mi SSE 8.1 mph - N/A   Scattered Clouds